Lynn Lake Airport

CYYL | YYL

Lynn Lake , Manitoba , Canada

Saturday, September 21st, 2019 | 06:35

Weather

CYYL 211124Z AUTO 29004KT 260V320 9SM SCT006 OVC012 10/10 A2963 RMK SLP044

Charts

No Charts Available

Gates

No Gates Available

Runways

2 Available

Events

No events for this airport


New event